Os — LHFA — position and weather

sailwx.info

Track history (hours):
 
Tides and Currents Weather Stations Pressure Air Temp Water Temp Dewpoint Dewpoint Depression Visibility Wind Speed Wind Dir Waves Ship Positions

Os

Last reported at 2014-May-08 14:15 UTC. Time now 2014-Aug-02 02:44 UTC.
Position N 62°36' E 006°17'.
Warning: this ship's position is months out of date.

Length 64 m.

Type: Passenger vessel. MMSI: 257066700.

Date/timePositionNaut miles runAvg speedWind from/ knotsBaromVisibWave heightAir tempDewpointWater temp
2014-May-08 14:15N 62°36' E 006°17'3 3.3
2014-May-08 13:27N 62°38' E 006°17'1 0.6
2014-May-08 12:33N 62°38' E 006°17'0 0.4
2014-May-08 11:27N 62°38' E 006°17'3 2.8
2014-May-08 10:32N 62°36' E 006°17'0 0.0
2014-May-08 09:33N 62°36' E 006°17'2 1.8
2014-May-08 08:24N 62°37' E 006°14'2 1.9
2014-May-08 07:24N 62°38' E 006°17'2 2.1
2014-May-08 06:33N 62°36' E 006°17'1 0.6
2014-May-08 05:27N 62°37' E 006°15'2 0.8
2014-May-08 03:19N 62°38' E 006°17'0 0.0
2014-May-08 02:31N 62°38' E 006°17'0 0.0
2014-May-08 01:32N 62°38' E 006°17'0 0.0
2014-May-08 00:33N 62°38' E 006°17'0 0.0
2014-May-07 23:34N 62°38' E 006°17'0 0.0
2014-May-07 22:33N 62°38' E 006°17'1 0.8
2014-May-07 21:30N 62°37' E 006°16'2 1.5
2014-May-07 20:13N 62°36' E 006°17'0 0.0
2014-May-07 19:19N 62°36' E 006°17'3 3.5
2014-May-07 18:33N 62°38' E 006°17'3 1.9
2014-May-07 17:07N 62°36' E 006°17'0 0.0
2014-May-07 16:33N 62°36' E 006°17'3 2.6
2014-May-07 15:30N 62°38' E 006°17'1 1.2
2014-May-07 14:23N 62°37' E 006°17'1 1.6
2014-May-07 13:33N 62°38' E 006°17'0 0.2
2014-May-07 12:32N 62°38' E 006°17'0 0.3
2014-May-07 11:33N 62°38' E 006°17'3 2.7
2014-May-07 10:31N 62°35' E 006°15'1 0.8
2014-May-07 09:33N 62°36' E 006°16'0 0.4
2014-May-07 08:33N 62°36' E 006°17'1 0.8
2014-May-07 07:32N 62°36' E 006°17'1 0.4
2014-May-07 05:33N 62°36' E 006°17'0 0.1
2014-May-07 04:33N 62°36' E 006°17'3 2.7
2014-May-07 03:33N 62°38' E 006°17'0 0.0
2014-May-07 02:32N 62°38' E 006°17'0 0.0
2014-May-07 01:31N 62°38' E 006°17'0 0.0
2014-May-07 00:27N 62°38' E 006°17'0 0.0
2014-May-06 23:28N 62°38' E 006°17'0 0.0
2014-May-06 22:33N 62°38' E 006°17'0 0.2
2014-May-06 21:29N 62°38' E 006°17'0 0.1
2014-May-06 20:29N 62°38' E 006°17'1 1.3
2014-May-06 19:28N 62°37' E 006°17'1 1.5
2014-May-06 18:29N 62°38' E 006°17'2 2.0
2014-May-06 17:33N 62°37' E 006°14'0 0.1
2014-May-06 16:33N 62°37' E 006°14'1 1.2
2014-May-06 15:22N 62°37' E 006°17'1 0.8
2014-May-06 14:18N 62°36' E 006°17'2 2.4
2014-May-06 13:32N 62°37' E 006°14'1 1.2
2014-May-06 12:32N 62°37' E 006°16'0 0.4
2014-May-06 11:14N 62°37' E 006°17'2 2.3
2014-May-06 10:34N 62°36' E 006°17'0 0.0
2014-May-06 09:30N 62°36' E 006°17'0 0.0
2014-May-06 08:33N 62°36' E 006°17'1 0.8
2014-May-06 07:32N 62°36' E 006°17'0 0.1
2014-May-06 06:32N 62°36' E 006°17'1 1.0
2014-May-06 05:33N 62°36' E 006°17'0 0.0
2014-May-06 04:33N 62°36' E 006°17'3 2.5
2014-May-06 03:30N 62°38' E 006°17'0 0.0
2014-May-06 02:33N 62°38' E 006°17'0 0.0
2014-May-06 01:28N 62°38' E 006°17'0 0.0
2014-May-06 00:25N 62°38' E 006°17'0 0.0
2014-May-05 23:33N 62°38' E 006°17'0 0.0
2014-May-05 22:33N 62°38' E 006°17'0 0.0
2014-May-05 21:33N 62°38' E 006°17'0 0.0
2014-May-05 20:29N 62°38' E 006°17'2 1.5
2014-May-05 19:26N 62°37' E 006°17'0 0.2
2014-May-05 18:15N 62°36' E 006°17'2 0.9
2014-May-05 16:33N 62°37' E 006°14'2 1.8
2014-May-05 15:32N 62°38' E 006°17'0 0.0
2014-May-05 14:33N 62°38' E 006°17'2 1.7
2014-May-05 13:32N 62°37' E 006°14'1 1.4
2014-May-05 12:31N 62°37' E 006°17'0 0.2
2014-May-05 11:33N 62°37' E 006°16'2 1.8
2014-May-05 10:29N 62°36' E 006°17'0 0.0
2014-May-05 09:29N 62°36' E 006°17'0 0.0
2014-May-05 08:33N 62°36' E 006°17'2 1.4
2014-May-05 07:11N 62°37' E 006°16'0 0.4
2014-May-05 06:10N 62°37' E 006°15'1 1.1
2014-May-05 05:15N 62°37' E 006°13'2 3.1
2014-May-05 04:33N 62°36' E 006°17'3 2.7
2014-May-05 03:33N 62°38' E 006°17'0 0.0
2014-May-05 02:18N 62°38' E 006°17'0 0.0
2014-May-05 01:33N 62°38' E 006°17'0 0.0
2014-May-05 00:27N 62°38' E 006°17'0 0.0
2014-May-04 23:26N 62°38' E 006°17'0 0.0
2014-May-04 22:04N 62°38' E 006°17'3 1.7
2014-May-04 20:33N 62°36' E 006°17'2 1.7
2014-May-04 19:21N 62°37' E 006°13'2 2.3
2014-May-04 18:32N 62°36' E 006°17'1 1.1
2014-May-04 17:25N 62°37' E 006°15'1 1.7
2014-May-04 16:33N 62°36' E 006°17'2 1.7
2014-May-04 15:21N 62°37' E 006°13'2 1.2
2014-May-04 13:33N 62°36' E 006°17'0 0.1
2014-May-04 12:33N 62°36' E 006°17'2 1.7
2014-May-04 11:18N 62°37' E 006°13'2 2.9
2014-May-04 10:33N 62°36' E 006°17'0 0.0
2014-May-04 09:33N 62°36' E 006°17'0 0.0
2014-May-04 08:33N 62°36' E 006°17'2 1.8
2014-May-04 07:21N 62°37' E 006°13'2 2.5
2014-May-04 06:33N 62°36' E 006°17'3 2.5
2014-May-04 05:32N 62°38' E 006°17'0 0.0
2014-May-04 03:29N 62°38' E 006°17'0 0.0
2014-May-04 02:30N 62°38' E 006°17'0 0.0
2014-May-04 00:30N 62°38' E 006°17'0 0.0
2014-May-03 23:31N 62°38' E 006°17'0 0.0
2014-May-03 22:31N 62°38' E 006°17'1 0.8
2014-May-03 21:25N 62°37' E 006°16'1 1.0
2014-May-03 20:33N 62°38' E 006°17'2 1.5
2014-May-03 19:23N 62°37' E 006°14'2 1.9
2014-May-03 18:26N 62°38' E 006°17'6 3.4
2014-May-03 16:33N 62°32' E 006°13'4 3.2
2014-May-03 15:16N 62°36' E 006°17'0 0.0
2014-May-03 14:17N 62°36' E 006°17'2 2.5
2014-May-03 13:33N 62°37' E 006°14'1 0.5
2014-May-03 12:29N 62°37' E 006°16'1 0.8
2014-May-03 11:30N 62°38' E 006°17'2 2.4
2014-May-03 10:33N 62°36' E 006°17'0 0.3
2014-May-03 09:31N 62°36' E 006°16'0 0.5
2014-May-03 08:33N 62°36' E 006°17'2 2.2
2014-May-03 07:32N 62°38' E 006°17'1 0.6
2014-May-03 06:11N 62°37' E 006°16'1 1.4
2014-May-03 05:25N 62°37' E 006°14'1 1.5
2014-May-03 04:31N 62°36' E 006°17'1 0.8
2014-May-03 03:33N 62°36' E 006°17'0 0.0
2014-May-03 02:33N 62°36' E 006°17'0 0.0
2014-May-03 01:34N 62°36' E 006°17'0 0.0
2014-May-03 00:33N 62°36' E 006°17'0 0.0
2014-May-02 23:33N 62°36' E 006°17'0 0.0
2014-May-02 22:33N 62°36' E 006°17'2 1.8
2014-May-02 21:19N 62°37' E 006°13'2 2.5
2014-May-02 20:31N 62°38' E 006°17'1 0.8
2014-May-02 19:31N 62°37' E 006°17'1 1.0
2014-May-02 18:32N 62°38' E 006°17'2 1.9
2014-May-02 17:33N 62°37' E 006°13'2 1.7
2014-May-02 16:16N 62°36' E 006°17'0 0.4
2014-May-02 15:19N 62°36' E 006°17'2 2.9
2014-May-02 14:31N 62°38' E 006°17'1 1.2
2014-May-02 13:31N 62°37' E 006°15'1 0.6
2014-May-02 12:33N 62°37' E 006°16'1 0.7
2014-May-02 11:27N 62°38' E 006°17'3 3.0
2014-May-02 10:33N 62°36' E 006°17'0 0.0
2014-May-02 09:34N 62°36' E 006°17'0 0.0
2014-May-02 08:33N 62°36' E 006°17'1 1.1
2014-May-02 07:32N 62°37' E 006°17'1 0.6
2014-May-02 06:33N 62°36' E 006°17'0 0.5
2014-May-02 05:33N 62°36' E 006°17'0 0.0
2014-May-02 04:33N 62°36' E 006°17'3 2.3
2014-May-02 03:23N 62°38' E 006°17'0 0.0
2014-May-02 02:26N 62°38' E 006°17'0 0.0
2014-May-02 01:33N 62°38' E 006°17'0 0.0
2014-May-01 22:32N 62°38' E 006°17'0 0.0
2014-May-01 21:33N 62°38' E 006°17'3 2.7
2014-May-01 20:33N 62°36' E 006°17'2 1.7
2014-May-01 19:18N 62°37' E 006°13'2 2.8
2014-May-01 18:33N 62°36' E 006°17'0 0.1
2014-May-01 17:33N 62°36' E 006°17'0 0.0
2014-May-01 16:33N 62°36' E 006°17'2 1.8
2014-May-01 15:21N 62°37' E 006°13'2 2.6
2014-May-01 14:33N 62°36' E 006°17'0 0.0
2014-May-01 13:33N 62°36' E 006°17'0 0.1
2014-May-01 12:33N 62°36' E 006°17'0 0.0
2014-May-01 11:33N 62°36' E 006°17'0 0.1
2014-May-01 10:32N 62°36' E 006°17'0 0.2
2014-May-01 09:33N 62°36' E 006°17'0 0.0
2014-May-01 08:33N 62°36' E 006°17'0 0.1
2014-May-01 07:33N 62°36' E 006°17'3 0.9
2014-May-01 04:30N 62°38' E 006°17'0 0.0
2014-May-01 03:31N 62°38' E 006°17'0 0.0
2014-May-01 02:27N 62°38' E 006°17'0 0.0
2014-May-01 01:18N 62°38' E 006°17'0 0.0
2014-May-01 00:31N 62°38' E 006°17'0 0.0
2014-Apr-30 23:32N 62°38' E 006°17'0 0.0
2014-Apr-30 22:14N 62°38' E 006°17'1 1.1
2014-Apr-30 21:29N 62°37' E 006°16'1 0.8
2014-Apr-30 20:33N 62°38' E 006°17'1 1.0
2014-Apr-30 19:28N 62°37' E 006°17'1 1.2
2014-Apr-30 18:18N 62°36' E 006°17'0 0.1
2014-Apr-30 17:21N 62°36' E 006°17'4 5.2
2014-Apr-30 16:33N 62°32' E 006°13'5 4.7
2014-Apr-30 15:24N 62°37' E 006°17'1 1.5
2014-Apr-30 14:31N 62°38' E 006°17'0 0.1
2014-Apr-30 13:33N 62°38' E 006°17'0 0.1
2014-Apr-30 12:29N 62°38' E 006°17'1 1.3
2014-Apr-30 11:33N 62°37' E 006°15'2 2.0
2014-Apr-30 10:33N 62°36' E 006°17'0 0.0
2014-Apr-30 09:33N 62°36' E 006°17'0 0.0
2014-Apr-30 08:33N 62°36' E 006°17'0 0.4
2014-Apr-30 07:33N 62°36' E 006°17'0 0.2
2014-Apr-30 05:33N 62°36' E 006°17'0 0.0
2014-Apr-30 04:33N 62°36' E 006°17'3 2.6
2014-Apr-30 03:32N 62°38' E 006°17'0 0.0
2014-Apr-30 02:33N 62°38' E 006°17'0 0.0
2014-Apr-30 01:31N 62°38' E 006°17'0 0.0
2014-Apr-30 00:24N 62°38' E 006°17'0 0.0
2014-Apr-29 23:32N 62°38' E 006°17'0 0.0
2014-Apr-29 22:16N 62°38' E 006°17'1 1.2
2014-Apr-29 21:33N 62°37' E 006°16'1 0.7
2014-Apr-29 20:25N 62°37' E 006°17'0 0.4
2014-Apr-29 19:25N 62°36' E 006°17'2 2.2
2014-Apr-29 18:31N 62°38' E 006°17'2 1.9
2014-Apr-29 17:33N 62°37' E 006°14'0 0.1
2014-Apr-29 16:33N 62°37' E 006°13'2 1.5
2014-Apr-29 15:26N 62°37' E 006°17'0 0.2
2014-Apr-29 14:21N 62°37' E 006°17'2 1.6
2014-Apr-29 13:20N 62°38' E 006°17'0 0.1
2014-Apr-29 12:27N 62°38' E 006°17'0 0.3
2014-Apr-29 11:29N 62°38' E 006°17'2 2.6
2014-Apr-29 10:33N 62°36' E 006°17'0 0.2
2014-Apr-29 09:34N 62°36' E 006°17'0 0.1
2014-Apr-29 08:33N 62°36' E 006°17'1 1.0
2014-Apr-29 07:33N 62°37' E 006°17'0 0.0
2014-Apr-29 06:32N 62°37' E 006°17'1 1.0
2014-Apr-29 05:33N 62°36' E 006°17'0 0.1
2014-Apr-29 04:33N 62°36' E 006°17'3 2.7
2014-Apr-29 03:33N 62°38' E 006°17'0 0.0
2014-Apr-29 02:29N 62°38' E 006°17'0 0.0
2014-Apr-29 01:33N 62°38' E 006°17'0 0.0
2014-Apr-29 00:31N 62°38' E 006°17'0 0.0
2014-Apr-28 23:24N 62°38' E 006°17'0 0.0
2014-Apr-28 22:33N 62°38' E 006°17'1 0.7
2014-Apr-28 21:25N 62°37' E 006°16'1 1.2
2014-Apr-28 20:14N 62°36' E 006°17'1 1.0
2014-Apr-28 19:27N 62°37' E 006°17'0 0.2
2014-Apr-28 18:19N 62°37' E 006°17'2 2.1
2014-Apr-28 17:33N 62°37' E 006°13'0 0.1
2014-Apr-28 16:30N 62°37' E 006°13'2 1.6
2014-Apr-28 15:19N 62°36' E 006°17'0 0.1
2014-Apr-28 14:18N 62°36' E 006°17'  
Track history (hours):
 
Tides and Currents Weather Stations Pressure Air Temp Water Temp Dewpoint Dewpoint Depression Visibility Wind Speed Wind Dir Waves Ship Positions

Os

Last reported at 2014-May-08 14:15 UTC. Time now 2014-Aug-02 02:44 UTC.
Position N 62°36' E 006°17'.
Warning: this ship's position is months out of date.

Length 64 m.

Type: Passenger vessel. MMSI: 257066700.

Date/timePositionNaut miles runAvg speedWind from/ knotsBaromVisibWave heightAir tempDewpointWater temp
2014-May-08 14:15N 62°36' E 006°17'3 3.3
2014-May-08 13:27N 62°38' E 006°17'1 0.6
2014-May-08 12:33N 62°38' E 006°17'0 0.4
2014-May-08 11:27N 62°38' E 006°17'3 2.8
2014-May-08 10:32N 62°36' E 006°17'0 0.0
2014-May-08 09:33N 62°36' E 006°17'2 1.8
2014-May-08 08:24N 62°37' E 006°14'2 1.9
2014-May-08 07:24N 62°38' E 006°17'2 2.1
2014-May-08 06:33N 62°36' E 006°17'1 0.6
2014-May-08 05:27N 62°37' E 006°15'2 0.8
2014-May-08 03:19N 62°38' E 006°17'0 0.0
2014-May-08 02:31N 62°38' E 006°17'0 0.0
2014-May-08 01:32N 62°38' E 006°17'0 0.0
2014-May-08 00:33N 62°38' E 006°17'0 0.0
2014-May-07 23:34N 62°38' E 006°17'0 0.0
2014-May-07 22:33N 62°38' E 006°17'1 0.8
2014-May-07 21:30N 62°37' E 006°16'2 1.5
2014-May-07 20:13N 62°36' E 006°17'0 0.0
2014-May-07 19:19N 62°36' E 006°17'3 3.5
2014-May-07 18:33N 62°38' E 006°17'3 1.9
2014-May-07 17:07N 62°36' E 006°17'0 0.0
2014-May-07 16:33N 62°36' E 006°17'3 2.6
2014-May-07 15:30N 62°38' E 006°17'1 1.2
2014-May-07 14:23N 62°37' E 006°17'1 1.6
2014-May-07 13:33N 62°38' E 006°17'0 0.2
2014-May-07 12:32N 62°38' E 006°17'0 0.3
2014-May-07 11:33N 62°38' E 006°17'3 2.7
2014-May-07 10:31N 62°35' E 006°15'1 0.8
2014-May-07 09:33N 62°36' E 006°16'0 0.4
2014-May-07 08:33N 62°36' E 006°17'1 0.8
2014-May-07 07:32N 62°36' E 006°17'1 0.4
2014-May-07 05:33N 62°36' E 006°17'0 0.1
2014-May-07 04:33N 62°36' E 006°17'3 2.7
2014-May-07 03:33N 62°38' E 006°17'0 0.0
2014-May-07 02:32N 62°38' E 006°17'0 0.0
2014-May-07 01:31N 62°38' E 006°17'0 0.0
2014-May-07 00:27N 62°38' E 006°17'0 0.0
2014-May-06 23:28N 62°38' E 006°17'0 0.0
2014-May-06 22:33N 62°38' E 006°17'0 0.2
2014-May-06 21:29N 62°38' E 006°17'0 0.1
2014-May-06 20:29N 62°38' E 006°17'1 1.3
2014-May-06 19:28N 62°37' E 006°17'1 1.5
2014-May-06 18:29N 62°38' E 006°17'2 2.0
2014-May-06 17:33N 62°37' E 006°14'0 0.1
2014-May-06 16:33N 62°37' E 006°14'1 1.2
2014-May-06 15:22N 62°37' E 006°17'1 0.8
2014-May-06 14:18N 62°36' E 006°17'2 2.4
2014-May-06 13:32N 62°37' E 006°14'1 1.2
2014-May-06 12:32N 62°37' E 006°16'0 0.4
2014-May-06 11:14N 62°37' E 006°17'2 2.3
2014-May-06 10:34N 62°36' E 006°17'0 0.0
2014-May-06 09:30N 62°36' E 006°17'0 0.0
2014-May-06 08:33N 62°36' E 006°17'1 0.8
2014-May-06 07:32N 62°36' E 006°17'0 0.1
2014-May-06 06:32N 62°36' E 006°17'1 1.0
2014-May-06 05:33N 62°36' E 006°17'0 0.0
2014-May-06 04:33N 62°36' E 006°17'3 2.5
2014-May-06 03:30N 62°38' E 006°17'0 0.0
2014-May-06 02:33N 62°38' E 006°17'0 0.0
2014-May-06 01:28N 62°38' E 006°17'0 0.0
2014-May-06 00:25N 62°38' E 006°17'0 0.0
2014-May-05 23:33N 62°38' E 006°17'0 0.0
2014-May-05 22:33N 62°38' E 006°17'0 0.0
2014-May-05 21:33N 62°38' E 006°17'0 0.0
2014-May-05 20:29N 62°38' E 006°17'2 1.5
2014-May-05 19:26N 62°37' E 006°17'0 0.2
2014-May-05 18:15N 62°36' E 006°17'2 0.9
2014-May-05 16:33N 62°37' E 006°14'2 1.8
2014-May-05 15:32N 62°38' E 006°17'0 0.0
2014-May-05 14:33N 62°38' E 006°17'2 1.7
2014-May-05 13:32N 62°37' E 006°14'1 1.4
2014-May-05 12:31N 62°37' E 006°17'0 0.2
2014-May-05 11:33N 62°37' E 006°16'2 1.8
2014-May-05 10:29N 62°36' E 006°17'0 0.0
2014-May-05 09:29N 62°36' E 006°17'0 0.0
2014-May-05 08:33N 62°36' E 006°17'2 1.4
2014-May-05 07:11N 62°37' E 006°16'0 0.4
2014-May-05 06:10N 62°37' E 006°15'1 1.1
2014-May-05 05:15N 62°37' E 006°13'2 3.1
2014-May-05 04:33N 62°36' E 006°17'3 2.7
2014-May-05 03:33N 62°38' E 006°17'0 0.0
2014-May-05 02:18N 62°38' E 006°17'0 0.0
2014-May-05 01:33N 62°38' E 006°17'0 0.0
2014-May-05 00:27N 62°38' E 006°17'0 0.0
2014-May-04 23:26N 62°38' E 006°17'0 0.0
2014-May-04 22:04N 62°38' E 006°17'3 1.7
2014-May-04 20:33N 62°36' E 006°17'2 1.7
2014-May-04 19:21N 62°37' E 006°13'2 2.3
2014-May-04 18:32N 62°36' E 006°17'1 1.1
2014-May-04 17:25N 62°37' E 006°15'1 1.7
2014-May-04 16:33N 62°36' E 006°17'2 1.7
2014-May-04 15:21N 62°37' E 006°13'2 1.2
2014-May-04 13:33N 62°36' E 006°17'0 0.1
2014-May-04 12:33N 62°36' E 006°17'2 1.7
2014-May-04 11:18N 62°37' E 006°13'2 2.9
2014-May-04 10:33N 62°36' E 006°17'0 0.0
2014-May-04 09:33N 62°36' E 006°17'0 0.0
2014-May-04 08:33N 62°36' E 006°17'2 1.8
2014-May-04 07:21N 62°37' E 006°13'2 2.5
2014-May-04 06:33N 62°36' E 006°17'3 2.5
2014-May-04 05:32N 62°38' E 006°17'0 0.0
2014-May-04 03:29N 62°38' E 006°17'0 0.0
2014-May-04 02:30N 62°38' E 006°17'0 0.0
2014-May-04 00:30N 62°38' E 006°17'0 0.0
2014-May-03 23:31N 62°38' E 006°17'0 0.0
2014-May-03 22:31N 62°38' E 006°17'1 0.8
2014-May-03 21:25N 62°37' E 006°16'1 1.0
2014-May-03 20:33N 62°38' E 006°17'2 1.5
2014-May-03 19:23N 62°37' E 006°14'2 1.9
2014-May-03 18:26N 62°38' E 006°17'6 3.4
2014-May-03 16:33N 62°32' E 006°13'4 3.2
2014-May-03 15:16N 62°36' E 006°17'0 0.0
2014-May-03 14:17N 62°36' E 006°17'2 2.5
2014-May-03 13:33N 62°37' E 006°14'1 0.5
2014-May-03 12:29N 62°37' E 006°16'1 0.8
2014-May-03 11:30N 62°38' E 006°17'2 2.4
2014-May-03 10:33N 62°36' E 006°17'0 0.3
2014-May-03 09:31N 62°36' E 006°16'0 0.5
2014-May-03 08:33N 62°36' E 006°17'2 2.2
2014-May-03 07:32N 62°38' E 006°17'1 0.6
2014-May-03 06:11N 62°37' E 006°16'1 1.4
2014-May-03 05:25N 62°37' E 006°14'1 1.5
2014-May-03 04:31N 62°36' E 006°17'1 0.8
2014-May-03 03:33N 62°36' E 006°17'0 0.0
2014-May-03 02:33N 62°36' E 006°17'0 0.0
2014-May-03 01:34N 62°36' E 006°17'0 0.0
2014-May-03 00:33N 62°36' E 006°17'0 0.0
2014-May-02 23:33N 62°36' E 006°17'0 0.0
2014-May-02 22:33N 62°36' E 006°17'2 1.8
2014-May-02 21:19N 62°37' E 006°13'2 2.5
2014-May-02 20:31N 62°38' E 006°17'1 0.8
2014-May-02 19:31N 62°37' E 006°17'1 1.0
2014-May-02 18:32N 62°38' E 006°17'2 1.9
2014-May-02 17:33N 62°37' E 006°13'2 1.7
2014-May-02 16:16N 62°36' E 006°17'0 0.4
2014-May-02 15:19N 62°36' E 006°17'2 2.9
2014-May-02 14:31N 62°38' E 006°17'1 1.2
2014-May-02 13:31N 62°37' E 006°15'1 0.6
2014-May-02 12:33N 62°37' E 006°16'1 0.7
2014-May-02 11:27N 62°38' E 006°17'3 3.0
2014-May-02 10:33N 62°36' E 006°17'0 0.0
2014-May-02 09:34N 62°36' E 006°17'0 0.0
2014-May-02 08:33N 62°36' E 006°17'1 1.1
2014-May-02 07:32N 62°37' E 006°17'1 0.6
2014-May-02 06:33N 62°36' E 006°17'0 0.5
2014-May-02 05:33N 62°36' E 006°17'0 0.0
2014-May-02 04:33N 62°36' E 006°17'3 2.3
2014-May-02 03:23N 62°38' E 006°17'0 0.0
2014-May-02 02:26N 62°38' E 006°17'0 0.0
2014-May-02 01:33N 62°38' E 006°17'0 0.0
2014-May-01 22:32N 62°38' E 006°17'0 0.0
2014-May-01 21:33N 62°38' E 006°17'3 2.7
2014-May-01 20:33N 62°36' E 006°17'2 1.7
2014-May-01 19:18N 62°37' E 006°13'2 2.8
2014-May-01 18:33N 62°36' E 006°17'0 0.1
2014-May-01 17:33N 62°36' E 006°17'0 0.0
2014-May-01 16:33N 62°36' E 006°17'2 1.8
2014-May-01 15:21N 62°37' E 006°13'2 2.6
2014-May-01 14:33N 62°36' E 006°17'0 0.0
2014-May-01 13:33N 62°36' E 006°17'0 0.1
2014-May-01 12:33N 62°36' E 006°17'0 0.0
2014-May-01 11:33N 62°36' E 006°17'0 0.1
2014-May-01 10:32N 62°36' E 006°17'0 0.2
2014-May-01 09:33N 62°36' E 006°17'0 0.0
2014-May-01 08:33N 62°36' E 006°17'0 0.1
2014-May-01 07:33N 62°36' E 006°17'3 0.9
2014-May-01 04:30N 62°38' E 006°17'0 0.0
2014-May-01 03:31N 62°38' E 006°17'0 0.0
2014-May-01 02:27N 62°38' E 006°17'0 0.0
2014-May-01 01:18N 62°38' E 006°17'0 0.0
2014-May-01 00:31N 62°38' E 006°17'0 0.0
2014-Apr-30 23:32N 62°38' E 006°17'0 0.0
2014-Apr-30 22:14N 62°38' E 006°17'1 1.1
2014-Apr-30 21:29N 62°37' E 006°16'1 0.8
2014-Apr-30 20:33N 62°38' E 006°17'1 1.0
2014-Apr-30 19:28N 62°37' E 006°17'1 1.2
2014-Apr-30 18:18N 62°36' E 006°17'0 0.1
2014-Apr-30 17:21N 62°36' E 006°17'4 5.2
2014-Apr-30 16:33N 62°32' E 006°13'5 4.7
2014-Apr-30 15:24N 62°37' E 006°17'1 1.5
2014-Apr-30 14:31N 62°38' E 006°17'0 0.1
2014-Apr-30 13:33N 62°38' E 006°17'0 0.1
2014-Apr-30 12:29N 62°38' E 006°17'1 1.3
2014-Apr-30 11:33N 62°37' E 006°15'2 2.0
2014-Apr-30 10:33N 62°36' E 006°17'0 0.0
2014-Apr-30 09:33N 62°36' E 006°17'0 0.0
2014-Apr-30 08:33N 62°36' E 006°17'0 0.4
2014-Apr-30 07:33N 62°36' E 006°17'0 0.2
2014-Apr-30 05:33N 62°36' E 006°17'0 0.0
2014-Apr-30 04:33N 62°36' E 006°17'3 2.6
2014-Apr-30 03:32N 62°38' E 006°17'0 0.0
2014-Apr-30 02:33N 62°38' E 006°17'0 0.0
2014-Apr-30 01:31N 62°38' E 006°17'0 0.0
2014-Apr-30 00:24N 62°38' E 006°17'0 0.0
2014-Apr-29 23:32N 62°38' E 006°17'0 0.0
2014-Apr-29 22:16N 62°38' E 006°17'1 1.2
2014-Apr-29 21:33N 62°37' E 006°16'1 0.7
2014-Apr-29 20:25N 62°37' E 006°17'0 0.4
2014-Apr-29 19:25N 62°36' E 006°17'2 2.2
2014-Apr-29 18:31N 62°38' E 006°17'2 1.9
2014-Apr-29 17:33N 62°37' E 006°14'0 0.1
2014-Apr-29 16:33N 62°37' E 006°13'2 1.5
2014-Apr-29 15:26N 62°37' E 006°17'0 0.2
2014-Apr-29 14:21N 62°37' E 006°17'2 1.6
2014-Apr-29 13:20N 62°38' E 006°17'0 0.1
2014-Apr-29 12:27N 62°38' E 006°17'0 0.3
2014-Apr-29 11:29N 62°38' E 006°17'2 2.6
2014-Apr-29 10:33N 62°36' E 006°17'0 0.2
2014-Apr-29 09:34N 62°36' E 006°17'0 0.1
2014-Apr-29 08:33N 62°36' E 006°17'1 1.0
2014-Apr-29 07:33N 62°37' E 006°17'0 0.0
2014-Apr-29 06:32N 62°37' E 006°17'1 1.0
2014-Apr-29 05:33N 62°36' E 006°17'0 0.1
2014-Apr-29 04:33N 62°36' E 006°17'3 2.7
2014-Apr-29 03:33N 62°38' E 006°17'0 0.0
2014-Apr-29 02:29N 62°38' E 006°17'0 0.0
2014-Apr-29 01:33N 62°38' E 006°17'0 0.0
2014-Apr-29 00:31N 62°38' E 006°17'0 0.0
2014-Apr-28 23:24N 62°38' E 006°17'0 0.0
2014-Apr-28 22:33N 62°38' E 006°17'1 0.7
2014-Apr-28 21:25N 62°37' E 006°16'1 1.2
2014-Apr-28 20:14N 62°36' E 006°17'1 1.0
2014-Apr-28 19:27N 62°37' E 006°17'0 0.2
2014-Apr-28 18:19N 62°37' E 006°17'2 2.1
2014-Apr-28 17:33N 62°37' E 006°13'0 0.1
2014-Apr-28 16:30N 62°37' E 006°13'2 1.6
2014-Apr-28 15:19N 62°36' E 006°17'0 0.1
2014-Apr-28 14:18N 62°36' E 006°17'  

Dump ship's entire track history